sensor_id;sensor_type;location;lat;lon;timestamp;P1;durP1;ratioP1;P2;durP2;ratioP2
42110;SDS011;27766;52.174;5.456;2023-08-06T00:01:16;20.20;;;8.40;;
42110;SDS011;27766;52.174;5.456;2023-08-06T00:03:45;12.00;;;8.48;;
42110;SDS011;27766;52.174;5.456;2023-08-06T00:06:12;9.43;;;8.18;;
42110;SDS011;27766;52.174;5.456;2023-08-06T00:08:40;17.25;;;8.55;;
42110;SDS011;27766;52.174;5.456;2023-08-06T00:11:07;10.45;;;7.75;;
42110;SDS011;27766;52.174;5.456;2023-08-06T00:13:34;10.48;;;7.88;;
42110;SDS011;27766;52.174;5.456;2023-08-06T00:16:08;13.00;;;7.95;;
42110;SDS011;27766;52.174;5.456;2023-08-06T00:18:36;8.07;;;7.22;;
42110;SDS011;27766;52.174;5.456;2023-08-06T00:21:03;8.75;;;7.53;;
42110;SDS011;27766;52.174;5.456;2023-08-06T00:23:30;9.00;;;7.68;;
42110;SDS011;27766;52.174;5.456;2023-08-06T00:25:58;9.57;;;7.75;;
42110;SDS011;27766;52.174;5.456;2023-08-06T00:28:25;8.18;;;7.40;;
42110;SDS011;27766;52.174;5.456;2023-08-06T00:30:53;12.52;;;8.05;;
42110;SDS011;27766;52.174;5.456;2023-08-06T00:33:21;9.18;;;7.60;;
42110;SDS011;27766;52.174;5.456;2023-08-06T00:35:49;10.77;;;7.70;;
42110;SDS011;27766;52.174;5.456;2023-08-06T00:38:17;10.80;;;8.10;;
42110;SDS011;27766;52.174;5.456;2023-08-06T00:40:44;9.07;;;6.97;;
42110;SDS011;27766;52.174;5.456;2023-08-06T00:43:11;10.55;;;8.38;;
42110;SDS011;27766;52.174;5.456;2023-08-06T00:45:38;10.95;;;8.43;;
42110;SDS011;27766;52.174;5.456;2023-08-06T00:48:05;11.10;;;8.55;;
42110;SDS011;27766;52.174;5.456;2023-08-06T00:50:34;10.23;;;8.25;;
42110;SDS011;27766;52.174;5.456;2023-08-06T00:53:01;13.90;;;8.52;;
42110;SDS011;27766;52.174;5.456;2023-08-06T00:55:29;9.45;;;8.45;;
42110;SDS011;27766;52.174;5.456;2023-08-06T00:57:56;10.40;;;8.15;;
42110;SDS011;27766;52.174;5.456;2023-08-06T01:00:24;9.88;;;8.45;;
42110;SDS011;27766;52.174;5.456;2023-08-06T01:02:53;10.93;;;8.73;;
42110;SDS011;27766;52.174;5.456;2023-08-06T01:05:20;10.75;;;9.00;;
42110;SDS011;27766;52.174;5.456;2023-08-06T01:16:09;12.15;;;10.02;;
42110;SDS011;27766;52.174;5.456;2023-08-06T01:18:38;11.65;;;9.93;;
42110;SDS011;27766;52.174;5.456;2023-08-06T01:21:06;10.38;;;8.90;;
42110;SDS011;27766;52.174;5.456;2023-08-06T01:23:33;11.50;;;10.30;;
42110;SDS011;27766;52.174;5.456;2023-08-06T01:28:40;11.93;;;9.60;;
42110;SDS011;27766;52.174;5.456;2023-08-06T01:31:18;11.85;;;10.57;;
42110;SDS011;27766;52.174;5.456;2023-08-06T01:33:53;17.27;;;11.52;;
42110;SDS011;27766;52.174;5.456;2023-08-06T01:36:22;14.18;;;10.20;;
42110;SDS011;27766;52.174;5.456;2023-08-06T01:38:53;13.93;;;10.98;;
42110;SDS011;27766;52.174;5.456;2023-08-06T01:41:20;13.70;;;11.10;;
42110;SDS011;27766;52.174;5.456;2023-08-06T01:43:47;14.07;;;12.18;;
42110;SDS011;27766;52.174;5.456;2023-08-06T01:46:15;14.00;;;11.55;;
42110;SDS011;27766;52.174;5.456;2023-08-06T01:48:42;16.10;;;14.02;;
42110;SDS011;27766;52.174;5.456;2023-08-06T01:51:09;16.65;;;13.20;;
42110;SDS011;27766;52.174;5.456;2023-08-06T01:53:36;15.93;;;12.95;;
42110;SDS011;27766;52.174;5.456;2023-08-06T01:56:03;14.82;;;12.05;;
42110;SDS011;27766;52.174;5.456;2023-08-06T01:58:31;13.85;;;12.07;;
42110;SDS011;27766;52.174;5.456;2023-08-06T02:00:58;15.48;;;11.98;;
42110;SDS011;27766;52.174;5.456;2023-08-06T02:03:25;18.08;;;12.70;;
42110;SDS011;27766;52.174;5.456;2023-08-06T02:05:52;17.77;;;12.70;;
42110;SDS011;27766;52.174;5.456;2023-08-06T02:08:21;18.20;;;12.02;;
42110;SDS011;27766;52.174;5.456;2023-08-06T02:10:48;14.57;;;11.55;;
42110;SDS011;27766;52.174;5.456;2023-08-06T02:13:15;15.45;;;12.10;;
42110;SDS011;27766;52.174;5.456;2023-08-06T02:15:43;15.10;;;12.10;;
42110;SDS011;27766;52.174;5.456;2023-08-06T02:18:11;13.10;;;11.20;;
42110;SDS011;27766;52.174;5.456;2023-08-06T02:20:38;17.80;;;11.57;;
42110;SDS011;27766;52.174;5.456;2023-08-06T02:23:05;13.95;;;11.55;;
42110;SDS011;27766;52.174;5.456;2023-08-06T02:25:33;16.15;;;12.45;;
42110;SDS011;27766;52.174;5.456;2023-08-06T02:28:00;19.42;;;13.15;;
42110;SDS011;27766;52.174;5.456;2023-08-06T02:30:27;18.23;;;12.45;;
42110;SDS011;27766;52.174;5.456;2023-08-06T02:32:54;13.07;;;11.77;;
42110;SDS011;27766;52.174;5.456;2023-08-06T02:35:22;18.17;;;12.65;;
42110;SDS011;27766;52.174;5.456;2023-08-06T02:37:49;16.73;;;12.40;;
42110;SDS011;27766;52.174;5.456;2023-08-06T02:40:16;14.25;;;11.52;;
42110;SDS011;27766;52.174;5.456;2023-08-06T02:42:43;16.30;;;12.43;;
42110;SDS011;27766;52.174;5.456;2023-08-06T02:45:10;14.75;;;11.32;;
42110;SDS011;27766;52.174;5.456;2023-08-06T02:47:38;12.00;;;10.40;;
42110;SDS011;27766;52.174;5.456;2023-08-06T02:50:05;12.95;;;10.98;;
42110;SDS011;27766;52.174;5.456;2023-08-06T02:52:32;13.68;;;11.38;;
42110;SDS011;27766;52.174;5.456;2023-08-06T02:55:00;14.25;;;11.57;;
42110;SDS011;27766;52.174;5.456;2023-08-06T02:57:27;13.32;;;11.00;;
42110;SDS011;27766;52.174;5.456;2023-08-06T02:59:55;9.90;;;8.15;;
42110;SDS011;27766;52.174;5.456;2023-08-06T03:02:22;8.88;;;7.47;;
42110;SDS011;27766;52.174;5.456;2023-08-06T03:04:49;7.45;;;5.70;;
42110;SDS011;27766;52.174;5.456;2023-08-06T03:07:16;6.40;;;5.75;;
42110;SDS011;27766;52.174;5.456;2023-08-06T03:09:44;6.70;;;5.47;;
42110;SDS011;27766;52.174;5.456;2023-08-06T03:12:11;7.05;;;5.90;;
42110;SDS011;27766;52.174;5.456;2023-08-06T03:14:38;6.43;;;5.80;;
42110;SDS011;27766;52.174;5.456;2023-08-06T03:17:05;7.00;;;5.50;;
42110;SDS011;27766;52.174;5.456;2023-08-06T03:19:32;6.03;;;5.35;;
42110;SDS011;27766;52.174;5.456;2023-08-06T03:21:59;7.80;;;6.20;;
42110;SDS011;27766;52.174;5.456;2023-08-06T03:24:26;7.47;;;6.35;;
42110;SDS011;27766;52.174;5.456;2023-08-06T03:26:53;8.52;;;7.18;;
42110;SDS011;27766;52.174;5.456;2023-08-06T03:29:21;8.63;;;7.07;;
42110;SDS011;27766;52.174;5.456;2023-08-06T03:31:49;10.40;;;8.55;;
42110;SDS011;27766;52.174;5.456;2023-08-06T03:34:17;9.80;;;7.68;;
42110;SDS011;27766;52.174;5.456;2023-08-06T03:36:44;10.88;;;7.93;;
42110;SDS011;27766;52.174;5.456;2023-08-06T03:39:11;13.48;;;9.32;;
42110;SDS011;27766;52.174;5.456;2023-08-06T03:41:38;15.82;;;9.60;;
42110;SDS011;27766;52.174;5.456;2023-08-06T03:44:05;12.05;;;9.68;;
42110;SDS011;27766;52.174;5.456;2023-08-06T03:46:33;11.38;;;9.25;;
42110;SDS011;27766;52.174;5.456;2023-08-06T03:49:01;13.65;;;10.70;;
42110;SDS011;27766;52.174;5.456;2023-08-06T03:51:28;13.45;;;10.85;;
42110;SDS011;27766;52.174;5.456;2023-08-06T03:53:55;17.88;;;12.55;;
42110;SDS011;27766;52.174;5.456;2023-08-06T03:56:22;17.73;;;13.18;;
42110;SDS011;27766;52.174;5.456;2023-08-06T03:58:49;19.60;;;14.70;;
42110;SDS011;27766;52.174;5.456;2023-08-06T04:01:17;19.58;;;14.30;;
42110;SDS011;27766;52.174;5.456;2023-08-06T04:03:44;20.42;;;14.75;;
42110;SDS011;27766;52.174;5.456;2023-08-06T04:06:14;17.50;;;14.98;;
42110;SDS011;27766;52.174;5.456;2023-08-06T04:08:42;22.27;;;15.88;;
42110;SDS011;27766;52.174;5.456;2023-08-06T04:11:09;23.52;;;15.30;;
42110;SDS011;27766;52.174;5.456;2023-08-06T04:13:37;27.05;;;16.25;;
42110;SDS011;27766;52.174;5.456;2023-08-06T04:16:04;17.45;;;15.02;;
42110;SDS011;27766;52.174;5.456;2023-08-06T04:18:32;20.30;;;16.70;;
42110;SDS011;27766;52.174;5.456;2023-08-06T04:20:59;21.55;;;16.15;;
42110;SDS011;27766;52.174;5.456;2023-08-06T04:23:28;22.77;;;17.23;;
42110;SDS011;27766;52.174;5.456;2023-08-06T04:25:58;25.00;;;17.85;;
42110;SDS011;27766;52.174;5.456;2023-08-06T04:28:26;23.13;;;17.13;;
42110;SDS011;27766;52.174;5.456;2023-08-06T04:30:53;19.35;;;16.65;;
42110;SDS011;27766;52.174;5.456;2023-08-06T04:33:21;22.45;;;16.33;;
42110;SDS011;27766;52.174;5.456;2023-08-06T04:35:53;22.77;;;17.58;;
42110;SDS011;27766;52.174;5.456;2023-08-06T04:38:25;22.45;;;17.50;;
42110;SDS011;27766;52.174;5.456;2023-08-06T04:40:53;21.50;;;16.10;;
42110;SDS011;27766;52.174;5.456;2023-08-06T04:43:20;24.20;;;16.48;;
42110;SDS011;27766;52.174;5.456;2023-08-06T04:45:48;22.95;;;16.48;;
42110;SDS011;27766;52.174;5.456;2023-08-06T04:48:20;19.33;;;15.82;;
42110;SDS011;27766;52.174;5.456;2023-08-06T04:50:47;20.63;;;16.45;;
42110;SDS011;27766;52.174;5.456;2023-08-06T04:53:19;18.73;;;16.05;;
42110;SDS011;27766;52.174;5.456;2023-08-06T04:55:47;19.25;;;16.42;;
42110;SDS011;27766;52.174;5.456;2023-08-06T04:58:14;20.52;;;16.23;;
42110;SDS011;27766;52.174;5.456;2023-08-06T05:00:41;21.50;;;16.63;;
42110;SDS011;27766;52.174;5.456;2023-08-06T05:03:09;22.40;;;16.27;;
42110;SDS011;27766;52.174;5.456;2023-08-06T05:05:36;22.02;;;16.90;;
42110;SDS011;27766;52.174;5.456;2023-08-06T05:08:03;21.63;;;16.65;;
42110;SDS011;27766;52.174;5.456;2023-08-06T05:10:30;22.00;;;16.77;;
42110;SDS011;27766;52.174;5.456;2023-08-06T05:12:58;21.88;;;17.90;;
42110;SDS011;27766;52.174;5.456;2023-08-06T05:15:25;19.58;;;17.27;;
42110;SDS011;27766;52.174;5.456;2023-08-06T05:17:52;24.10;;;17.77;;
42110;SDS011;27766;52.174;5.456;2023-08-06T05:20:20;21.63;;;17.58;;
42110;SDS011;27766;52.174;5.456;2023-08-06T05:22:47;24.48;;;17.73;;
42110;SDS011;27766;52.174;5.456;2023-08-06T05:25:15;20.98;;;17.48;;
42110;SDS011;27766;52.174;5.456;2023-08-06T05:27:42;21.33;;;17.05;;
42110;SDS011;27766;52.174;5.456;2023-08-06T05:30:09;25.63;;;17.20;;
42110;SDS011;27766;52.174;5.456;2023-08-06T05:32:37;21.35;;;16.70;;
42110;SDS011;27766;52.174;5.456;2023-08-06T05:35:04;26.60;;;17.23;;
42110;SDS011;27766;52.174;5.456;2023-08-06T05:37:33;24.77;;;16.83;;
42110;SDS011;27766;52.174;5.456;2023-08-06T05:40:00;20.63;;;16.58;;
42110;SDS011;27766;52.174;5.456;2023-08-06T05:42:28;17.35;;;15.55;;
42110;SDS011;27766;52.174;5.456;2023-08-06T05:44:55;19.33;;;15.98;;
42110;SDS011;27766;52.174;5.456;2023-08-06T05:47:23;23.70;;;17.02;;
42110;SDS011;27766;52.174;5.456;2023-08-06T05:49:50;22.02;;;16.52;;
42110;SDS011;27766;52.174;5.456;2023-08-06T05:52:17;20.98;;;17.60;;
42110;SDS011;27766;52.174;5.456;2023-08-06T05:54:44;21.27;;;17.40;;
42110;SDS011;27766;52.174;5.456;2023-08-06T05:57:11;21.73;;;16.42;;
42110;SDS011;27766;52.174;5.456;2023-08-06T05:59:40;20.08;;;16.98;;
42110;SDS011;27766;52.174;5.456;2023-08-06T06:02:07;22.00;;;16.60;;
42110;SDS011;27766;52.174;5.456;2023-08-06T06:04:34;22.80;;;16.77;;
42110;SDS011;27766;52.174;5.456;2023-08-06T06:07:02;21.67;;;17.15;;
42110;SDS011;27766;52.174;5.456;2023-08-06T06:09:29;29.27;;;17.00;;
42110;SDS011;27766;52.174;5.456;2023-08-06T06:11:56;23.10;;;17.38;;
42110;SDS011;27766;52.174;5.456;2023-08-06T06:14:23;18.20;;;16.27;;
42110;SDS011;27766;52.174;5.456;2023-08-06T06:16:51;19.85;;;16.23;;
42110;SDS011;27766;52.174;5.456;2023-08-06T06:19:19;18.55;;;16.08;;
42110;SDS011;27766;52.174;5.456;2023-08-06T06:21:47;18.30;;;15.48;;
42110;SDS011;27766;52.174;5.456;2023-08-06T06:24:14;19.85;;;16.65;;
42110;SDS011;27766;52.174;5.456;2023-08-06T06:26:41;20.88;;;15.90;;
42110;SDS011;27766;52.174;5.456;2023-08-06T06:29:08;18.42;;;15.88;;
42110;SDS011;27766;52.174;5.456;2023-08-06T06:31:36;18.88;;;16.75;;
42110;SDS011;27766;52.174;5.456;2023-08-06T06:34:03;20.38;;;16.55;;
42110;SDS011;27766;52.174;5.456;2023-08-06T06:36:30;18.60;;;15.35;;
42110;SDS011;27766;52.174;5.456;2023-08-06T06:38:57;18.33;;;15.57;;
42110;SDS011;27766;52.174;5.456;2023-08-06T06:41:24;22.15;;;16.98;;
42110;SDS011;27766;52.174;5.456;2023-08-06T06:43:53;17.85;;;14.88;;
42110;SDS011;27766;52.174;5.456;2023-08-06T06:46:20;23.98;;;16.42;;
42110;SDS011;27766;52.174;5.456;2023-08-06T06:48:47;25.98;;;17.02;;
42110;SDS011;27766;52.174;5.456;2023-08-06T06:51:14;21.85;;;16.42;;
42110;SDS011;27766;52.174;5.456;2023-08-06T06:53:41;22.67;;;17.33;;
42110;SDS011;27766;52.174;5.456;2023-08-06T06:56:08;21.92;;;15.88;;
42110;SDS011;27766;52.174;5.456;2023-08-06T06:58:36;24.50;;;16.58;;
42110;SDS011;27766;52.174;5.456;2023-08-06T07:01:05;21.13;;;16.75;;
42110;SDS011;27766;52.174;5.456;2023-08-06T07:03:33;20.00;;;16.15;;
42110;SDS011;27766;52.174;5.456;2023-08-06T07:06:00;18.50;;;15.30;;
42110;SDS011;27766;52.174;5.456;2023-08-06T07:08:27;20.05;;;16.48;;
42110;SDS011;27766;52.174;5.456;2023-08-06T07:11:04;22.13;;;16.73;;
42110;SDS011;27766;52.174;5.456;2023-08-06T07:13:33;20.85;;;16.60;;
42110;SDS011;27766;52.174;5.456;2023-08-06T07:16:01;19.83;;;15.82;;
42110;SDS011;27766;52.174;5.456;2023-08-06T07:18:28;25.88;;;16.38;;
42110;SDS011;27766;52.174;5.456;2023-08-06T07:20:55;18.85;;;16.45;;
42110;SDS011;27766;52.174;5.456;2023-08-06T07:23:24;20.08;;;15.77;;
42110;SDS011;27766;52.174;5.456;2023-08-06T07:25:52;20.33;;;15.20;;
42110;SDS011;27766;52.174;5.456;2023-08-06T07:28:19;22.80;;;15.30;;
42110;SDS011;27766;52.174;5.456;2023-08-06T07:30:46;19.10;;;14.45;;
42110;SDS011;27766;52.174;5.456;2023-08-06T07:33:14;21.08;;;13.52;;
42110;SDS011;27766;52.174;5.456;2023-08-06T07:35:42;19.48;;;14.07;;
42110;SDS011;27766;52.174;5.456;2023-08-06T07:38:10;15.65;;;13.18;;
42110;SDS011;27766;52.174;5.456;2023-08-06T07:40:38;16.27;;;13.18;;
42110;SDS011;27766;52.174;5.456;2023-08-06T07:43:05;19.85;;;13.52;;
42110;SDS011;27766;52.174;5.456;2023-08-06T07:45:35;17.35;;;13.13;;
42110;SDS011;27766;52.174;5.456;2023-08-06T07:48:03;18.02;;;13.52;;
42110;SDS011;27766;52.174;5.456;2023-08-06T07:50:30;16.90;;;12.55;;
42110;SDS011;27766;52.174;5.456;2023-08-06T07:52:58;15.82;;;12.80;;
42110;SDS011;27766;52.174;5.456;2023-08-06T07:55:28;15.98;;;13.18;;
42110;SDS011;27766;52.174;5.456;2023-08-06T07:57:55;14.65;;;12.95;;
42110;SDS011;27766;52.174;5.456;2023-08-06T08:00:23;19.30;;;13.10;;
42110;SDS011;27766;52.174;5.456;2023-08-06T08:02:50;14.90;;;12.85;;
42110;SDS011;27766;52.174;5.456;2023-08-06T08:05:17;13.63;;;11.68;;
42110;SDS011;27766;52.174;5.456;2023-08-06T08:07:44;13.73;;;11.25;;
42110;SDS011;27766;52.174;5.456;2023-08-06T08:10:12;19.92;;;12.38;;
42110;SDS011;27766;52.174;5.456;2023-08-06T08:12:39;17.73;;;13.43;;
42110;SDS011;27766;52.174;5.456;2023-08-06T08:15:06;18.85;;;12.32;;
42110;SDS011;27766;52.174;5.456;2023-08-06T08:17:34;18.00;;;12.10;;
42110;SDS011;27766;52.174;5.456;2023-08-06T08:20:01;14.70;;;11.18;;
42110;SDS011;27766;52.174;5.456;2023-08-06T08:22:29;14.88;;;11.80;;
42110;SDS011;27766;52.174;5.456;2023-08-06T08:24:57;16.67;;;13.27;;
42110;SDS011;27766;52.174;5.456;2023-08-06T08:27:24;13.80;;;11.85;;
42110;SDS011;27766;52.174;5.456;2023-08-06T08:29:51;15.40;;;13.13;;
42110;SDS011;27766;52.174;5.456;2023-08-06T08:32:18;15.60;;;13.13;;
42110;SDS011;27766;52.174;5.456;2023-08-06T08:34:45;15.63;;;13.45;;
42110;SDS011;27766;52.174;5.456;2023-08-06T08:37:13;14.32;;;12.20;;
42110;SDS011;27766;52.174;5.456;2023-08-06T08:39:40;19.92;;;13.40;;
42110;SDS011;27766;52.174;5.456;2023-08-06T08:42:07;17.00;;;13.52;;
42110;SDS011;27766;52.174;5.456;2023-08-06T08:44:36;19.90;;;14.25;;
42110;SDS011;27766;52.174;5.456;2023-08-06T08:47:06;19.42;;;13.63;;
42110;SDS011;27766;52.174;5.456;2023-08-06T08:49:35;19.40;;;14.63;;
42110;SDS011;27766;52.174;5.456;2023-08-06T08:52:03;6.65;;;4.20;;
42110;SDS011;27766;52.174;5.456;2023-08-06T08:57:04;2.97;;;2.30;;
42110;SDS011;27766;52.174;5.456;2023-08-06T08:59:33;5.80;;;2.30;;
42110;SDS011;27766;52.174;5.456;2023-08-06T09:02:01;5.20;;;2.20;;
42110;SDS011;27766;52.174;5.456;2023-08-06T09:04:29;2.55;;;2.05;;
42110;SDS011;27766;52.174;5.456;2023-08-06T09:07:01;2.00;;;1.73;;
42110;SDS011;27766;52.174;5.456;2023-08-06T09:09:30;3.20;;;2.25;;
42110;SDS011;27766;52.174;5.456;2023-08-06T09:12:00;3.17;;;2.22;;
42110;SDS011;27766;52.174;5.456;2023-08-06T09:14:29;3.35;;;2.08;;
42110;SDS011;27766;52.174;5.456;2023-08-06T09:16:56;3.55;;;1.95;;
42110;SDS011;27766;52.174;5.456;2023-08-06T09:19:24;2.40;;;1.88;;
42110;SDS011;27766;52.174;5.456;2023-08-06T09:21:54;2.20;;;1.83;;
42110;SDS011;27766;52.174;5.456;2023-08-06T09:24:23;4.28;;;2.60;;
42110;SDS011;27766;52.174;5.456;2023-08-06T09:26:50;4.90;;;2.42;;
42110;SDS011;27766;52.174;5.456;2023-08-06T09:29:17;3.65;;;2.50;;
42110;SDS011;27766;52.174;5.456;2023-08-06T09:31:46;3.22;;;2.63;;
42110;SDS011;27766;52.174;5.456;2023-08-06T09:34:16;4.80;;;3.42;;
42110;SDS011;27766;52.174;5.456;2023-08-06T09:36:47;3.85;;;3.17;;
42110;SDS011;27766;52.174;5.456;2023-08-06T09:39:18;6.03;;;3.35;;
42110;SDS011;27766;52.174;5.456;2023-08-06T09:41:47;4.63;;;3.30;;
42110;SDS011;27766;52.174;5.456;2023-08-06T09:44:19;4.45;;;3.50;;
42110;SDS011;27766;52.174;5.456;2023-08-06T09:49:24;6.47;;;4.22;;
42110;SDS011;27766;52.174;5.456;2023-08-06T09:51:53;6.90;;;4.32;;
42110;SDS011;27766;52.174;5.456;2023-08-06T09:54:23;5.75;;;4.07;;
42110;SDS011;27766;52.174;5.456;2023-08-06T09:56:54;6.32;;;4.55;;
42110;SDS011;27766;52.174;5.456;2023-08-06T09:59:22;5.85;;;4.57;;
42110;SDS011;27766;52.174;5.456;2023-08-06T10:01:50;6.75;;;4.82;;
42110;SDS011;27766;52.174;5.456;2023-08-06T10:04:19;5.38;;;4.80;;
42110;SDS011;27766;52.174;5.456;2023-08-06T10:06:52;6.40;;;4.40;;
42110;SDS011;27766;52.174;5.456;2023-08-06T10:09:19;8.02;;;4.80;;
42110;SDS011;27766;52.174;5.456;2023-08-06T10:11:50;6.20;;;4.65;;
42110;SDS011;27766;52.174;5.456;2023-08-06T10:14:25;7.43;;;5.10;;
42110;SDS011;27766;52.174;5.456;2023-08-06T10:16:56;6.65;;;4.95;;
42110;SDS011;27766;52.174;5.456;2023-08-06T10:19:25;6.40;;;5.10;;
42110;SDS011;27766;52.174;5.456;2023-08-06T10:22:09;5.97;;;4.57;;
42110;SDS011;27766;52.174;5.456;2023-08-06T10:27:13;6.40;;;3.83;;
42110;SDS011;27766;52.174;5.456;2023-08-06T10:29:40;6.97;;;4.95;;
42110;SDS011;27766;52.174;5.456;2023-08-06T10:32:07;5.85;;;5.03;;
42110;SDS011;27766;52.174;5.456;2023-08-06T10:34:53;5.63;;;4.63;;
42110;SDS011;27766;52.174;5.456;2023-08-06T10:37:23;8.43;;;6.55;;
42110;SDS011;27766;52.174;5.456;2023-08-06T10:39:51;8.50;;;6.22;;
42110;SDS011;27766;52.174;5.456;2023-08-06T10:42:19;7.47;;;6.13;;
42110;SDS011;27766;52.174;5.456;2023-08-06T10:47:43;10.32;;;6.00;;
42110;SDS011;27766;52.174;5.456;2023-08-06T10:50:12;10.63;;;6.57;;
42110;SDS011;27766;52.174;5.456;2023-08-06T10:52:46;13.23;;;6.05;;
42110;SDS011;27766;52.174;5.456;2023-08-06T10:55:14;8.15;;;6.28;;
42110;SDS011;27766;52.174;5.456;2023-08-06T10:57:48;9.70;;;6.07;;
42110;SDS011;27766;52.174;5.456;2023-08-06T11:00:16;13.45;;;6.75;;
42110;SDS011;27766;52.174;5.456;2023-08-06T11:02:43;10.02;;;6.45;;
42110;SDS011;27766;52.174;5.456;2023-08-06T11:05:13;11.50;;;6.75;;
42110;SDS011;27766;52.174;5.456;2023-08-06T11:07:41;12.70;;;6.70;;
42110;SDS011;27766;52.174;5.456;2023-08-06T11:10:10;12.55;;;6.90;;
42110;SDS011;27766;52.174;5.456;2023-08-06T11:12:39;10.98;;;6.13;;
42110;SDS011;27766;52.174;5.456;2023-08-06T11:15:07;9.48;;;5.82;;
42110;SDS011;27766;52.174;5.456;2023-08-06T11:17:34;9.70;;;5.40;;
42110;SDS011;27766;52.174;5.456;2023-08-06T11:20:04;8.13;;;4.57;;
42110;SDS011;27766;52.174;5.456;2023-08-06T11:22:32;8.88;;;5.20;;
42110;SDS011;27766;52.174;5.456;2023-08-06T11:24:59;5.72;;;3.97;;
42110;SDS011;27766;52.174;5.456;2023-08-06T11:27:28;6.47;;;4.35;;
42110;SDS011;27766;52.174;5.456;2023-08-06T11:29:55;10.38;;;5.05;;
42110;SDS011;27766;52.174;5.456;2023-08-06T11:32:23;7.97;;;3.72;;
42110;SDS011;27766;52.174;5.456;2023-08-06T11:34:52;6.75;;;4.10;;
42110;SDS011;27766;52.174;5.456;2023-08-06T11:37:22;9.27;;;3.85;;
42110;SDS011;27766;52.174;5.456;2023-08-06T11:39:51;8.50;;;4.38;;
42110;SDS011;27766;52.174;5.456;2023-08-06T11:42:19;8.38;;;4.18;;
42110;SDS011;27766;52.174;5.456;2023-08-06T11:44:46;4.57;;;3.95;;
42110;SDS011;27766;52.174;5.456;2023-08-06T11:47:15;6.20;;;3.63;;
42110;SDS011;27766;52.174;5.456;2023-08-06T11:49:47;5.95;;;3.38;;
42110;SDS011;27766;52.174;5.456;2023-08-06T11:52:19;4.40;;;3.58;;
42110;SDS011;27766;52.174;5.456;2023-08-06T11:57:37;6.18;;;3.45;;
42110;SDS011;27766;52.174;5.456;2023-08-06T12:00:08;4.07;;;2.78;;
42110;SDS011;27766;52.174;5.456;2023-08-06T12:02:38;7.93;;;3.15;;
42110;SDS011;27766;52.174;5.456;2023-08-06T12:07:40;4.10;;;2.70;;
42110;SDS011;27766;52.174;5.456;2023-08-06T12:10:13;5.35;;;3.33;;
42110;SDS011;27766;52.174;5.456;2023-08-06T12:12:41;5.65;;;3.35;;
42110;SDS011;27766;52.174;5.456;2023-08-06T12:15:09;8.50;;;3.80;;
42110;SDS011;27766;52.174;5.456;2023-08-06T12:17:37;4.85;;;3.17;;
42110;SDS011;27766;52.174;5.456;2023-08-06T12:20:05;6.47;;;4.30;;
42110;SDS011;27766;52.174;5.456;2023-08-06T12:22:34;3.50;;;2.72;;
42110;SDS011;27766;52.174;5.456;2023-08-06T12:25:02;5.47;;;3.10;;
42110;SDS011;27766;52.174;5.456;2023-08-06T12:27:30;4.45;;;2.60;;
42110;SDS011;27766;52.174;5.456;2023-08-06T12:29:57;5.20;;;2.80;;
42110;SDS011;27766;52.174;5.456;2023-08-06T12:32:25;4.45;;;2.92;;
42110;SDS011;27766;52.174;5.456;2023-08-06T12:34:52;7.65;;;2.83;;
42110;SDS011;27766;52.174;5.456;2023-08-06T12:37:19;5.78;;;2.72;;
42110;SDS011;27766;52.174;5.456;2023-08-06T12:39:47;3.75;;;2.13;;
42110;SDS011;27766;52.174;5.456;2023-08-06T12:42:14;3.50;;;2.47;;
42110;SDS011;27766;52.174;5.456;2023-08-06T12:44:42;7.93;;;2.40;;
42110;SDS011;27766;52.174;5.456;2023-08-06T12:47:09;5.35;;;2.85;;
42110;SDS011;27766;52.174;5.456;2023-08-06T12:49:37;4.20;;;3.17;;
42110;SDS011;27766;52.174;5.456;2023-08-06T12:52:05;3.58;;;2.45;;
42110;SDS011;27766;52.174;5.456;2023-08-06T12:54:34;5.70;;;2.20;;
42110;SDS011;27766;52.174;5.456;2023-08-06T12:57:20;4.32;;;3.15;;
42110;SDS011;27766;52.174;5.456;2023-08-06T12:59:49;6.03;;;3.58;;
42110;SDS011;27766;52.174;5.456;2023-08-06T13:02:37;6.65;;;2.55;;
42110;SDS011;27766;52.174;5.456;2023-08-06T13:05:17;4.53;;;2.92;;
42110;SDS011;27766;52.174;5.456;2023-08-06T13:07:46;6.15;;;4.22;;
42110;SDS011;27766;52.174;5.456;2023-08-06T13:10:14;4.32;;;3.55;;
42110;SDS011;27766;52.174;5.456;2023-08-06T13:12:47;4.80;;;3.28;;
42110;SDS011;27766;52.174;5.456;2023-08-06T13:15:19;4.72;;;3.38;;
42110;SDS011;27766;52.174;5.456;2023-08-06T13:18:08;6.93;;;3.85;;
42110;SDS011;27766;52.174;5.456;2023-08-06T13:20:46;7.13;;;3.47;;
42110;SDS011;27766;52.174;5.456;2023-08-06T13:23:32;4.75;;;3.88;;
42110;SDS011;27766;52.174;5.456;2023-08-06T13:26:05;6.60;;;4.78;;
42110;SDS011;27766;52.174;5.456;2023-08-06T13:28:32;9.43;;;5.05;;
42110;SDS011;27766;52.174;5.456;2023-08-06T13:31:00;7.00;;;4.68;;
42110;SDS011;27766;52.174;5.456;2023-08-06T13:33:28;7.63;;;4.78;;
42110;SDS011;27766;52.174;5.456;2023-08-06T13:35:55;7.53;;;4.63;;
42110;SDS011;27766;52.174;5.456;2023-08-06T13:38:22;6.22;;;4.72;;
42110;SDS011;27766;52.174;5.456;2023-08-06T13:40:50;6.93;;;4.57;;
42110;SDS011;27766;52.174;5.456;2023-08-06T13:43:17;7.45;;;4.32;;
42110;SDS011;27766;52.174;5.456;2023-08-06T13:45:45;6.07;;;4.18;;
42110;SDS011;27766;52.174;5.456;2023-08-06T13:48:13;11.10;;;3.92;;
42110;SDS011;27766;52.174;5.456;2023-08-06T13:50:40;6.45;;;4.68;;
42110;SDS011;27766;52.174;5.456;2023-08-06T13:53:07;5.50;;;4.10;;
42110;SDS011;27766;52.174;5.456;2023-08-06T13:55:34;5.03;;;4.47;;
42110;SDS011;27766;52.174;5.456;2023-08-06T13:58:02;7.43;;;4.32;;
42110;SDS011;27766;52.174;5.456;2023-08-06T14:00:29;6.20;;;5.32;;
42110;SDS011;27766;52.174;5.456;2023-08-06T14:02:57;9.35;;;5.07;;
42110;SDS011;27766;52.174;5.456;2023-08-06T14:05:24;5.80;;;4.47;;
42110;SDS011;27766;52.174;5.456;2023-08-06T14:07:51;6.18;;;4.55;;
42110;SDS011;27766;52.174;5.456;2023-08-06T14:10:19;4.35;;;3.60;;
42110;SDS011;27766;52.174;5.456;2023-08-06T14:12:46;5.82;;;3.55;;
42110;SDS011;27766;52.174;5.456;2023-08-06T14:15:31;4.60;;;4.10;;
42110;SDS011;27766;52.174;5.456;2023-08-06T14:18:00;5.97;;;3.72;;
42110;SDS011;27766;52.174;5.456;2023-08-06T14:20:27;4.32;;;3.08;;
42110;SDS011;27766;52.174;5.456;2023-08-06T14:22:55;4.68;;;3.13;;
42110;SDS011;27766;52.174;5.456;2023-08-06T14:25:22;5.85;;;3.40;;
42110;SDS011;27766;52.174;5.456;2023-08-06T14:27:50;5.70;;;3.83;;
42110;SDS011;27766;52.174;5.456;2023-08-06T14:30:17;5.63;;;3.70;;
42110;SDS011;27766;52.174;5.456;2023-08-06T14:32:45;4.72;;;3.75;;
42110;SDS011;27766;52.174;5.456;2023-08-06T14:35:13;6.75;;;3.00;;
42110;SDS011;27766;52.174;5.456;2023-08-06T14:37:40;4.15;;;2.97;;
42110;SDS011;27766;52.174;5.456;2023-08-06T14:40:08;3.25;;;2.63;;
42110;SDS011;27766;52.174;5.456;2023-08-06T14:42:35;5.38;;;2.90;;
42110;SDS011;27766;52.174;5.456;2023-08-06T14:45:03;3.75;;;2.47;;
42110;SDS011;27766;52.174;5.456;2023-08-06T14:47:30;3.58;;;3.00;;
42110;SDS011;27766;52.174;5.456;2023-08-06T14:49:58;5.38;;;2.90;;
42110;SDS011;27766;52.174;5.456;2023-08-06T14:52:25;4.68;;;2.38;;
42110;SDS011;27766;52.174;5.456;2023-08-06T14:54:52;3.25;;;2.53;;
42110;SDS011;27766;52.174;5.456;2023-08-06T14:57:22;9.68;;;2.97;;
42110;SDS011;27766;52.174;5.456;2023-08-06T14:59:54;4.43;;;2.65;;
42110;SDS011;27766;52.174;5.456;2023-08-06T15:02:22;5.13;;;2.95;;
42110;SDS011;27766;52.174;5.456;2023-08-06T15:04:49;4.82;;;2.72;;
42110;SDS011;27766;52.174;5.456;2023-08-06T15:07:17;3.40;;;2.03;;